createdAt,value
2022-08-12T00:01:03.634Z,2.53
2022-08-12T00:03:51.019Z,2.67
2022-08-12T00:06:39.130Z,3.13
2022-08-12T00:09:26.545Z,2.67
2022-08-12T00:12:12.990Z,2.50
2022-08-12T00:14:58.887Z,3.17
2022-08-12T00:17:45.156Z,2.90
2022-08-12T00:20:31.459Z,2.65
2022-08-12T00:23:17.696Z,2.40
2022-08-12T00:26:23.771Z,2.90
2022-08-12T00:29:12.430Z,3.13
2022-08-12T00:32:00.075Z,3.20
2022-08-12T00:34:48.484Z,2.85
2022-08-12T00:37:36.442Z,2.50
2022-08-12T00:40:24.779Z,3.00
2022-08-12T00:42:53.108Z,2.33
2022-08-12T00:45:20.608Z,2.90
2022-08-12T00:47:51.670Z,2.65
2022-08-12T00:50:21.447Z,2.53
2022-08-12T00:52:51.446Z,2.38
2022-08-12T00:55:19.497Z,2.53
2022-08-12T00:57:49.710Z,2.42
2022-08-12T01:00:25.202Z,2.40
2022-08-12T01:02:57.532Z,2.67
2022-08-12T01:05:44.832Z,2.78
2022-08-12T01:08:30.346Z,2.40
2022-08-12T01:11:16.399Z,2.80
2022-08-12T01:13:50.248Z,2.22
2022-08-12T01:16:24.208Z,2.38
2022-08-12T01:18:53.344Z,2.40
2022-08-12T01:21:59.314Z,2.22
2022-08-12T01:24:32.570Z,2.67
2022-08-12T01:27:02.549Z,2.30
2022-08-12T01:29:35.010Z,2.35
2022-08-12T01:32:09.046Z,2.08
2022-08-12T01:34:38.931Z,2.42
2022-08-12T01:37:09.502Z,2.50
2022-08-12T01:40:33.206Z,2.80
2022-08-12T01:42:49.005Z,2.80
2022-08-12T01:45:17.963Z,2.45
2022-08-12T01:48:05.534Z,3.05
2022-08-12T01:51:00.344Z,2.63
2022-08-12T01:53:50.269Z,2.45
2022-08-12T01:56:22.353Z,2.15
2022-08-12T01:59:12.946Z,2.17
2022-08-12T02:01:41.872Z,2.40
2022-08-12T02:04:57.937Z,2.80
2022-08-12T02:08:09.991Z,2.97
2022-08-12T02:11:18.858Z,2.58
2022-08-12T02:14:01.685Z,2.33
2022-08-12T02:16:31.618Z,2.38
2022-08-12T02:19:23.015Z,2.50
2022-08-12T02:22:21.769Z,2.47
2022-08-12T02:24:51.015Z,2.20
2022-08-12T02:27:19.624Z,2.38
2022-08-12T02:29:47.629Z,2.47
2022-08-12T02:32:15.279Z,2.30
2022-08-12T02:34:44.579Z,2.60
2022-08-12T02:37:15.490Z,1.88
2022-08-12T02:39:48.773Z,2.40
2022-08-12T02:42:20.747Z,2.72
2022-08-12T02:44:53.236Z,2.10
2022-08-12T02:47:59.735Z,2.67
2022-08-12T02:50:14.739Z,2.72
2022-08-12T02:52:43.731Z,2.45
2022-08-12T02:55:28.844Z,2.35
2022-08-12T02:58:09.252Z,2.72
2022-08-12T03:00:40.682Z,2.40
2022-08-12T03:03:11.652Z,2.38
2022-08-12T03:05:46.949Z,2.88
2022-08-12T03:08:31.320Z,2.53
2022-08-12T03:11:04.515Z,2.35
2022-08-12T03:13:39.037Z,2.40
2022-08-12T03:16:07.645Z,2.15
2022-08-12T03:18:35.507Z,2.50
2022-08-12T03:21:03.387Z,2.10
2022-08-12T03:23:31.690Z,2.35
2022-08-12T03:26:02.443Z,2.22
2022-08-12T03:28:50.825Z,2.60
2022-08-12T03:31:24.757Z,2.85
2022-08-12T03:34:01.254Z,2.33
2022-08-12T03:36:35.662Z,2.40
2022-08-12T03:39:45.831Z,2.90
2022-08-12T03:42:30.895Z,2.70
2022-08-12T03:45:28.419Z,2.45
2022-08-12T03:48:33.402Z,2.50
2022-08-12T03:51:21.004Z,2.50
2022-08-12T03:54:10.582Z,2.45
2022-08-12T03:56:57.432Z,2.63
2022-08-12T03:59:43.152Z,2.67
2022-08-12T04:02:15.626Z,2.55
2022-08-12T04:04:45.469Z,2.85
2022-08-12T04:07:13.739Z,3.05
2022-08-12T04:09:42.749Z,2.83
2022-08-12T04:12:32.261Z,3.28
2022-08-12T04:15:03.660Z,2.67
2022-08-12T04:17:31.933Z,2.85
2022-08-12T04:19:59.805Z,2.83
2022-08-12T04:22:29.473Z,3.00
2022-08-12T04:25:01.132Z,3.45
2022-08-12T04:27:30.141Z,2.97
2022-08-12T04:30:30.565Z,3.97
2022-08-12T04:32:48.193Z,3.05
2022-08-12T04:35:17.110Z,3.05
2022-08-12T04:37:58.487Z,2.83
2022-08-12T04:40:30.691Z,2.80
2022-08-12T04:42:58.764Z,3.17
2022-08-12T04:45:25.876Z,2.95
2022-08-12T04:47:52.984Z,3.00
2022-08-12T04:50:33.977Z,3.03
2022-08-12T04:53:03.108Z,2.95
2022-08-12T04:55:30.165Z,3.75
2022-08-12T04:57:57.124Z,3.28
2022-08-12T05:00:24.257Z,3.10
2022-08-12T05:02:51.176Z,3.20
2022-08-12T05:05:20.780Z,3.22
2022-08-12T05:07:54.585Z,3.15
2022-08-12T05:10:33.429Z,3.63
2022-08-12T05:13:08.689Z,3.00
2022-08-12T05:16:00.246Z,3.47
2022-08-12T05:20:59.170Z,3.40
2022-08-12T05:23:27.163Z,3.78
2022-08-12T05:25:58.190Z,3.33
2022-08-12T05:28:27.148Z,3.67
2022-08-12T05:30:55.346Z,3.97
2022-08-12T05:33:26.618Z,3.30
2022-08-12T05:35:53.823Z,2.88
2022-08-12T05:38:39.314Z,3.60
2022-08-12T05:41:19.210Z,3.47
2022-08-12T05:43:52.139Z,3.72
2022-08-12T05:46:21.014Z,3.30
2022-08-12T05:48:49.544Z,3.03
2022-08-12T05:51:16.908Z,3.88
2022-08-12T05:53:44.777Z,3.60
2022-08-12T05:56:33.614Z,3.40
2022-08-12T05:59:04.078Z,3.97
2022-08-12T06:02:11.859Z,3.53
2022-08-12T06:04:17.963Z,3.83
2022-08-12T06:06:51.334Z,3.22
2022-08-12T06:09:18.216Z,3.08
2022-08-12T06:12:04.459Z,3.15
2022-08-12T06:14:36.548Z,3.13
2022-08-12T06:17:05.390Z,3.78
2022-08-12T06:20:28.252Z,3.28
2022-08-12T06:22:19.774Z,3.67
2022-08-12T06:24:48.544Z,3.40
2022-08-12T06:27:17.793Z,3.17
2022-08-12T06:30:08.362Z,3.08
2022-08-12T06:32:32.060Z,3.22
2022-08-12T06:35:23.978Z,3.30
2022-08-12T06:37:56.976Z,3.10
2022-08-12T06:40:43.745Z,3.45
2022-08-12T06:43:11.024Z,3.10
2022-08-12T06:45:49.312Z,3.28
2022-08-12T06:48:17.498Z,3.15
2022-08-12T06:50:45.329Z,3.72
2022-08-12T06:53:12.600Z,3.33
2022-08-12T06:55:56.643Z,3.45
2022-08-12T06:58:29.026Z,3.17
2022-08-12T07:00:59.292Z,3.20
2022-08-12T07:03:30.350Z,3.10
2022-08-12T07:06:06.832Z,3.20
2022-08-12T07:08:35.368Z,3.58
2022-08-12T07:11:05.141Z,3.40
2022-08-12T07:14:11.263Z,3.70
2022-08-12T07:16:28.475Z,3.60
2022-08-12T07:18:56.860Z,3.15
2022-08-12T07:22:01.917Z,3.53
2022-08-12T07:24:12.552Z,3.00
2022-08-12T07:26:43.714Z,2.85
2022-08-12T07:29:11.804Z,3.20
2022-08-12T07:31:39.242Z,3.10
2022-08-12T07:34:06.428Z,2.90
2022-08-12T07:36:33.902Z,2.80
2022-08-12T07:39:02.635Z,2.70
2022-08-12T07:41:31.933Z,3.13
2022-08-12T07:44:06.379Z,3.20
2022-08-12T07:46:40.297Z,2.88
2022-08-12T07:49:10.465Z,3.42
2022-08-12T07:51:38.602Z,3.78
2022-08-12T07:54:09.612Z,3.30
2022-08-12T07:56:38.970Z,2.67
2022-08-12T07:59:08.763Z,2.67
2022-08-12T08:01:38.215Z,2.78
2022-08-12T08:04:25.375Z,2.38
2022-08-12T08:06:53.088Z,2.55
2022-08-12T08:09:22.296Z,2.50
2022-08-12T08:12:09.216Z,2.35
2022-08-12T08:14:49.767Z,2.45
2022-08-12T08:17:17.504Z,2.05
2022-08-12T08:20:02.221Z,2.50
2022-08-12T08:22:40.709Z,2.50
2022-08-12T08:25:35.095Z,1.83
2022-08-12T08:28:00.116Z,2.50
2022-08-12T08:30:45.789Z,2.00
2022-08-12T08:33:23.415Z,2.10
2022-08-12T08:36:02.250Z,2.20
2022-08-12T08:38:33.360Z,2.30
2022-08-12T08:42:17.783Z,2.65
2022-08-12T08:44:12.093Z,2.30
2022-08-12T08:46:40.735Z,2.22
2022-08-12T08:49:08.316Z,2.70
2022-08-12T08:51:36.483Z,2.88
2022-08-12T08:54:03.694Z,2.70
2022-08-12T08:56:30.865Z,2.20
2022-08-12T08:58:58.335Z,2.38
2022-08-12T09:01:37.441Z,2.40
2022-08-12T09:05:12.428Z,2.50
2022-08-12T09:06:58.549Z,2.67
2022-08-12T09:09:34.212Z,2.63
2022-08-12T09:12:32.689Z,2.50
2022-08-12T09:15:07.073Z,3.90
2022-08-12T09:17:59.965Z,2.83
2022-08-12T09:20:33.291Z,2.67
2022-08-12T09:23:08.003Z,2.85
2022-08-12T09:25:49.470Z,2.85
2022-08-12T09:28:18.272Z,3.00
2022-08-12T09:30:46.809Z,3.20
2022-08-12T09:33:19.014Z,2.85
2022-08-12T09:36:05.713Z,2.88
2022-08-12T09:42:33.504Z,3.05
2022-08-12T09:44:38.465Z,3.45
2022-08-12T09:46:56.257Z,3.70
2022-08-12T09:49:26.867Z,3.47
2022-08-12T09:51:55.829Z,3.17
2022-08-12T09:54:34.086Z,3.55
2022-08-12T09:58:08.232Z,3.40
2022-08-12T10:00:16.137Z,3.70
2022-08-12T10:03:09.173Z,3.30
2022-08-12T10:06:26.510Z,3.25
2022-08-12T10:08:44.536Z,4.15
2022-08-12T10:12:07.810Z,4.53
2022-08-12T10:14:34.770Z,3.45
2022-08-12T10:17:03.279Z,3.58
2022-08-12T10:19:37.862Z,3.50
2022-08-12T10:22:06.210Z,4.00
2022-08-12T10:25:17.496Z,4.30
2022-08-12T10:28:09.025Z,3.47
2022-08-12T10:30:46.869Z,3.20
2022-08-12T10:33:30.921Z,3.10
2022-08-12T10:36:00.453Z,3.40
2022-08-12T10:38:34.681Z,3.28
2022-08-12T10:41:58.010Z,3.75
2022-08-12T10:44:17.487Z,3.47
2022-08-12T10:46:50.270Z,4.00
2022-08-12T10:50:02.535Z,4.15
2022-08-12T10:52:34.683Z,3.90
2022-08-12T10:54:56.228Z,4.40
2022-08-12T10:58:14.095Z,4.28
2022-08-12T11:00:34.469Z,4.03
2022-08-12T11:04:31.476Z,4.95
2022-08-12T11:07:07.639Z,4.40
2022-08-12T11:08:43.362Z,4.47
2022-08-12T11:11:17.770Z,4.13
2022-08-12T11:14:06.117Z,4.70
2022-08-12T11:16:40.038Z,4.63
2022-08-12T11:19:31.234Z,4.65
2022-08-12T11:22:01.353Z,4.60
2022-08-12T11:24:32.451Z,4.28
2022-08-12T11:27:07.418Z,4.63
2022-08-12T11:30:02.597Z,4.22
2022-08-12T11:32:23.487Z,4.65
2022-08-12T11:34:54.571Z,4.30
2022-08-12T11:37:25.769Z,3.92
2022-08-12T11:42:45.910Z,4.43
2022-08-12T11:45:16.972Z,5.53
2022-08-12T11:47:44.730Z,5.18
2022-08-12T11:50:19.704Z,5.40
2022-08-12T11:53:58.083Z,5.60
2022-08-12T11:55:35.364Z,5.18
2022-08-12T11:59:22.069Z,5.45
2022-08-12T12:03:48.736Z,4.75
2022-08-12T12:06:17.336Z,4.60
2022-08-12T12:08:50.806Z,5.20
2022-08-12T12:11:20.334Z,5.15
2022-08-12T12:14:08.482Z,5.50
2022-08-12T12:16:38.319Z,5.10
2022-08-12T12:19:08.898Z,5.43
2022-08-12T12:21:48.784Z,5.22
2022-08-12T12:24:21.900Z,5.43
2022-08-12T12:27:00.238Z,5.30
2022-08-12T12:30:18.524Z,5.50
2022-08-12T12:32:29.042Z,4.78
2022-08-12T12:35:44.305Z,5.95
2022-08-12T12:38:11.736Z,6.18
2022-08-12T12:40:42.125Z,5.22
2022-08-12T12:43:12.903Z,5.80
2022-08-12T12:45:44.426Z,5.47
2022-08-12T12:48:16.030Z,5.40
2022-08-12T12:50:51.215Z,5.15
2022-08-12T12:54:07.117Z,5.72
2022-08-12T12:56:18.015Z,5.15
2022-08-12T12:58:45.154Z,5.28
2022-08-12T13:01:25.249Z,5.30
2022-08-12T13:04:01.878Z,5.53
2022-08-12T13:06:31.024Z,5.20
2022-08-12T13:09:02.694Z,5.03
2022-08-12T13:11:41.440Z,5.57
2022-08-12T13:14:29.103Z,5.45
2022-08-12T13:17:06.002Z,6.15
2022-08-12T13:19:45.394Z,5.30
2022-08-12T13:22:19.599Z,5.28
2022-08-12T13:24:54.541Z,5.90
2022-08-12T13:27:35.252Z,5.63
2022-08-12T13:30:12.471Z,5.70
2022-08-12T13:32:57.647Z,5.43
2022-08-12T13:36:02.722Z,5.90
2022-08-12T13:38:13.832Z,5.28
2022-08-12T13:40:41.665Z,5.88
2022-08-12T13:43:40.471Z,5.55
2022-08-12T13:46:12.215Z,6.05
2022-08-12T13:48:45.030Z,5.80
2022-08-12T13:51:14.283Z,5.85
2022-08-12T13:53:58.826Z,6.18
2022-08-12T13:56:35.071Z,6.35
2022-08-12T13:59:09.846Z,6.40
2022-08-12T14:01:40.679Z,5.97
2022-08-12T14:04:12.045Z,6.55
2022-08-12T14:06:41.067Z,7.00
2022-08-12T14:09:17.849Z,6.38
2022-08-12T14:11:58.394Z,6.53
2022-08-12T14:14:27.527Z,6.85
2022-08-12T14:17:02.294Z,6.78
2022-08-12T14:19:38.000Z,6.38
2022-08-12T14:22:13.916Z,6.20
2022-08-12T14:24:42.448Z,6.50
2022-08-12T14:27:12.043Z,6.10
2022-08-12T14:30:05.082Z,6.45
2022-08-12T14:32:37.084Z,6.45
2022-08-12T14:35:09.579Z,5.82
2022-08-12T14:37:56.473Z,6.60
2022-08-12T14:40:29.078Z,7.75
2022-08-12T14:42:58.901Z,7.57
2022-08-12T14:45:45.424Z,6.70
2022-08-12T14:48:18.253Z,6.60
2022-08-12T14:51:02.583Z,7.47
2022-08-12T14:59:55.683Z,6.97
2022-08-12T15:02:21.092Z,5.93
2022-08-12T15:04:58.981Z,5.90
2022-08-12T15:07:34.453Z,5.97
2022-08-12T15:10:32.394Z,6.45
2022-08-12T15:13:07.303Z,6.15
2022-08-12T15:15:46.039Z,6.30
2022-08-12T15:18:21.355Z,6.22
2022-08-12T15:20:50.858Z,5.80
2022-08-12T15:23:21.214Z,6.22
2022-08-12T15:26:02.394Z,6.13
2022-08-12T15:28:35.323Z,6.13
2022-08-12T15:31:09.575Z,5.65
2022-08-12T15:34:22.967Z,5.82
2022-08-12T15:36:55.122Z,6.60
2022-08-12T15:39:23.331Z,6.75
2022-08-12T15:41:55.237Z,6.85
2022-08-12T15:44:42.404Z,6.75
2022-08-12T15:47:10.500Z,6.88
2022-08-12T15:49:54.332Z,6.47
2022-08-12T15:52:27.330Z,7.07
2022-08-12T15:54:58.413Z,7.85
2022-08-12T15:57:27.412Z,7.75
2022-08-12T16:00:07.202Z,8.48
2022-08-12T16:02:50.048Z,7.10
2022-08-12T16:06:19.506Z,7.20
2022-08-12T16:08:16.368Z,8.18
2022-08-12T16:10:45.762Z,9.70
2022-08-12T16:13:32.458Z,9.98
2022-08-12T16:16:04.322Z,9.00
2022-08-12T16:18:49.962Z,8.65
2022-08-12T16:21:50.481Z,8.07
2022-08-12T16:24:08.332Z,8.85
2022-08-12T16:26:40.631Z,8.82
2022-08-12T16:29:15.259Z,8.23
2022-08-12T16:31:44.216Z,8.82
2022-08-12T16:34:25.754Z,8.02
2022-08-12T16:37:07.419Z,9.07
2022-08-12T16:39:59.792Z,9.77
2022-08-12T16:42:27.845Z,9.35
2022-08-12T16:44:59.466Z,8.52
2022-08-12T16:47:28.031Z,8.13
2022-08-12T16:49:57.817Z,7.88
2022-08-12T16:52:25.911Z,9.10
2022-08-12T16:54:54.118Z,9.20
2022-08-12T16:57:35.074Z,10.35
2022-08-12T17:00:10.650Z,9.77
2022-08-12T17:02:40.553Z,10.05
2022-08-12T17:05:14.976Z,10.60
2022-08-12T17:07:47.204Z,10.48
2022-08-12T17:10:36.435Z,11.50
2022-08-12T17:13:10.102Z,10.50
2022-08-12T17:15:50.683Z,10.93
2022-08-12T17:18:43.851Z,10.25
2022-08-12T17:21:19.790Z,9.95
2022-08-12T17:23:53.641Z,9.85
2022-08-12T17:26:27.905Z,10.18
2022-08-12T17:28:56.533Z,9.55
2022-08-12T17:32:01.692Z,11.15
2022-08-12T17:34:30.586Z,10.75
2022-08-12T17:37:04.942Z,10.98
2022-08-12T17:40:06.445Z,11.38
2022-08-12T17:42:32.531Z,11.82
2022-08-12T17:45:15.570Z,12.00
2022-08-12T17:48:01.092Z,12.00
2022-08-12T17:50:33.989Z,12.13
2022-08-12T17:53:02.398Z,12.82
2022-08-12T17:55:43.715Z,13.13
2022-08-12T17:58:12.787Z,13.10
2022-08-12T18:00:44.214Z,13.45
2022-08-12T18:04:04.634Z,12.30
2022-08-12T18:06:08.402Z,12.32
2022-08-12T18:08:41.216Z,12.73
2022-08-12T18:12:04.320Z,12.32
2022-08-12T18:14:15.793Z,12.25
2022-08-12T18:16:55.228Z,12.10
2022-08-12T18:19:22.887Z,12.00
2022-08-12T18:22:02.274Z,11.93
2022-08-12T18:24:30.559Z,12.57
2022-08-12T18:26:57.509Z,12.95
2022-08-12T18:29:27.250Z,13.40
2022-08-12T18:32:35.211Z,13.38
2022-08-12T18:35:10.711Z,14.25
2022-08-12T18:37:41.671Z,15.05
2022-08-12T18:40:28.671Z,14.98
2022-08-12T18:42:59.315Z,15.02
2022-08-12T18:45:31.676Z,13.30
2022-08-12T18:48:16.648Z,14.10
2022-08-12T18:50:50.144Z,14.60
2022-08-12T18:54:05.004Z,14.18
2022-08-12T18:56:07.327Z,15.10
2022-08-12T18:58:59.962Z,16.10
2022-08-12T19:02:19.784Z,15.13
2022-08-12T19:04:15.708Z,15.30
2022-08-12T19:06:46.606Z,14.30
2022-08-12T19:09:15.143Z,16.23
2022-08-12T19:12:01.771Z,15.15
2022-08-12T19:14:28.702Z,15.10
2022-08-12T19:17:05.053Z,15.52
2022-08-12T19:19:37.488Z,15.23
2022-08-12T19:22:09.335Z,14.57
2022-08-12T19:24:54.929Z,14.05
2022-08-12T19:27:23.711Z,12.73
2022-08-12T19:30:07.191Z,12.23
2022-08-12T19:32:37.101Z,13.02
2022-08-12T19:36:07.292Z,12.75
2022-08-12T19:38:03.451Z,12.35
2022-08-12T19:40:35.171Z,13.23
2022-08-12T19:43:17.847Z,13.45
2022-08-12T19:45:50.526Z,13.65
2022-08-12T19:48:19.735Z,13.48
2022-08-12T19:50:52.781Z,13.15
2022-08-12T19:53:24.773Z,11.77
2022-08-12T19:58:23.920Z,11.60
2022-08-12T20:00:54.784Z,11.45
2022-08-12T20:03:38.847Z,10.68
2022-08-12T20:06:21.529Z,11.27
2022-08-12T20:08:55.866Z,11.02
2022-08-12T20:12:11.776Z,11.38
2022-08-12T20:14:19.027Z,10.95
2022-08-12T20:16:52.132Z,12.90
2022-08-12T20:19:23.330Z,12.75
2022-08-12T20:21:50.836Z,13.07
2022-08-12T20:24:19.127Z,12.73
2022-08-12T20:26:46.553Z,13.40
2022-08-12T20:29:16.580Z,13.30
2022-08-12T20:31:44.283Z,13.73
2022-08-12T20:34:12.461Z,13.52
2022-08-12T20:36:44.392Z,13.80
2022-08-12T20:39:34.340Z,14.38
2022-08-12T20:42:07.332Z,14.50
2022-08-12T20:44:40.516Z,13.98
2022-08-12T20:47:19.905Z,14.65
2022-08-12T20:49:55.387Z,13.98
2022-08-12T20:52:29.794Z,13.63
2022-08-12T20:54:57.922Z,13.65
2022-08-12T20:57:37.406Z,14.10
2022-08-12T21:00:15.397Z,14.57
2022-08-12T21:02:46.604Z,14.02
2022-08-12T21:06:12.351Z,14.32
2022-08-12T21:08:26.652Z,13.95
2022-08-12T21:10:54.616Z,13.93
2022-08-12T21:13:26.764Z,14.68
2022-08-12T21:15:59.677Z,13.60
2022-08-12T21:18:29.100Z,13.70
2022-08-12T21:20:59.107Z,14.10
2022-08-12T21:23:30.900Z,13.57
2022-08-12T21:26:16.192Z,14.05
2022-08-12T21:28:56.573Z,13.45
2022-08-12T21:32:39.884Z,12.10
2022-08-12T21:34:17.968Z,12.88
2022-08-12T21:36:51.930Z,12.95
2022-08-12T21:39:32.643Z,13.75
2022-08-12T21:42:06.855Z,14.35
2022-08-12T21:45:46.319Z,15.02
2022-08-12T21:47:24.749Z,15.75
2022-08-12T21:50:03.102Z,14.13
2022-08-12T21:52:40.844Z,13.50
2022-08-12T21:55:17.935Z,13.13
2022-08-12T21:57:53.213Z,12.32
2022-08-12T22:00:31.560Z,12.57
2022-08-12T22:04:02.061Z,11.45
2022-08-12T22:06:31.285Z,11.48
2022-08-12T22:09:15.419Z,10.32
2022-08-12T22:11:44.092Z,10.65
2022-08-12T22:14:24.261Z,10.70
2022-08-12T22:16:53.643Z,9.60
2022-08-12T22:19:22.807Z,9.75
2022-08-12T22:21:53.952Z,9.70
2022-08-12T22:24:26.765Z,11.00
2022-08-12T22:27:18.215Z,9.82
2022-08-12T22:30:16.014Z,10.40
2022-08-12T22:32:51.602Z,10.40
2022-08-12T22:35:47.579Z,10.23
2022-08-12T22:38:26.553Z,11.27
2022-08-12T22:41:05.305Z,11.00
2022-08-12T22:44:00.845Z,10.25
2022-08-12T22:46:34.788Z,10.65
2022-08-12T22:49:02.042Z,10.70
2022-08-12T22:51:57.473Z,10.25
2022-08-12T22:54:35.486Z,9.82
2022-08-12T22:57:03.857Z,10.80
2022-08-12T22:59:33.737Z,10.90
2022-08-12T23:02:17.786Z,10.77
2022-08-12T23:04:59.731Z,10.93
2022-08-12T23:07:27.825Z,10.20
2022-08-12T23:10:03.936Z,10.13
2022-08-12T23:12:49.516Z,10.60
2022-08-12T23:15:16.706Z,10.55
2022-08-12T23:17:46.150Z,10.02
2022-08-12T23:20:13.453Z,10.70
2022-08-12T23:22:41.003Z,10.73
2022-08-12T23:25:20.860Z,10.23
2022-08-12T23:28:29.309Z,10.27
2022-08-12T23:31:04.201Z,10.23
2022-08-12T23:34:00.219Z,10.38
2022-08-12T23:36:39.462Z,9.50
2022-08-12T23:40:06.764Z,9.60
2022-08-12T23:42:16.666Z,9.77
2022-08-12T23:44:47.296Z,10.13
2022-08-12T23:47:16.210Z,9.80
2022-08-12T23:49:58.020Z,9.23
2022-08-12T23:52:46.678Z,9.57
2022-08-12T23:55:25.172Z,9.55
2022-08-12T23:58:20.653Z,8.57
